createdAt,value
2017-03-31T00:00:07.503Z,1013.27
2017-03-31T00:01:02.531Z,1013.25
2017-03-31T00:02:03.548Z,1013.25
2017-03-31T00:03:03.596Z,1013.27
2017-03-31T00:03:58.600Z,1013.25
2017-03-31T00:04:53.643Z,1013.22
2017-03-31T00:05:47.687Z,1013.24
2017-03-31T00:06:41.718Z,1013.23
2017-03-31T00:07:41.786Z,1013.21
2017-03-31T00:08:30.881Z,1013.18
2017-03-31T00:09:19.839Z,1013.20
2017-03-31T00:10:07.841Z,1013.19
2017-03-31T00:10:56.955Z,1013.15
2017-03-31T00:11:45.954Z,1013.14
2017-03-31T00:12:35.025Z,1013.15
2017-03-31T00:13:24.073Z,1013.06
2017-03-31T00:14:12.221Z,1013.08
2017-03-31T00:15:00.142Z,1013.09
2017-03-31T00:15:48.134Z,1013.10
2017-03-31T00:16:36.232Z,1013.06
2017-03-31T00:17:25.289Z,1013.10
2017-03-31T00:18:19.248Z,1013.08
2017-03-31T00:19:14.355Z,1013.06
2017-03-31T00:20:08.366Z,1013.04
2017-03-31T00:21:08.440Z,1013.03
2017-03-31T00:22:03.469Z,1013.02
2017-03-31T00:22:58.489Z,1012.99
2017-03-31T00:23:59.529Z,1013.00
2017-03-31T00:24:59.595Z,1012.99
2017-03-31T00:25:59.558Z,1012.97
2017-03-31T00:26:54.585Z,1012.98
2017-03-31T00:27:48.901Z,1012.94
2017-03-31T00:28:49.749Z,1012.89
2017-03-31T00:29:49.673Z,1012.85
2017-03-31T00:30:49.728Z,1012.87
2017-03-31T00:31:43.781Z,1012.82
2017-03-31T00:32:38.817Z,1012.80
2017-03-31T00:33:39.841Z,1012.77
2017-03-31T00:34:39.852Z,1012.73
2017-03-31T00:35:39.939Z,1012.71
2017-03-31T00:36:34.946Z,1012.75
2017-03-31T00:37:29.019Z,1012.72
2017-03-31T00:38:18.052Z,1012.70
2017-03-31T00:39:07.082Z,1012.67
2017-03-31T00:39:56.106Z,1012.69
2017-03-31T00:40:44.186Z,1012.69
2017-03-31T00:41:32.265Z,1012.68
2017-03-31T00:42:21.380Z,1012.66
2017-03-31T00:43:16.236Z,1012.63
2017-03-31T00:44:10.430Z,1012.59
2017-03-31T00:45:10.365Z,1012.63
2017-03-31T00:46:05.456Z,1012.62
2017-03-31T00:47:05.453Z,1012.60
2017-03-31T00:48:05.408Z,1012.58
2017-03-31T00:49:05.458Z,1012.55
2017-03-31T00:49:53.530Z,1012.57
2017-03-31T00:50:53.547Z,1012.56
2017-03-31T00:51:41.623Z,1012.49
2017-03-31T00:52:41.626Z,1012.53
2017-03-31T00:53:30.627Z,1012.50
2017-03-31T00:54:18.716Z,1012.51
2017-03-31T00:55:07.761Z,1012.49
2017-03-31T00:56:01.762Z,1012.46
2017-03-31T00:56:49.850Z,1012.46
2017-03-31T00:57:37.862Z,1012.46
2017-03-31T00:58:25.929Z,1012.45
2017-03-31T00:59:27.070Z,1012.45
2017-03-31T01:00:14.927Z,1012.44
2017-03-31T01:01:04.008Z,1012.46
2017-03-31T01:01:52.086Z,1012.42
2017-03-31T01:02:40.072Z,1012.40
2017-03-31T01:03:29.167Z,1012.40
2017-03-31T01:04:17.156Z,1012.39
2017-03-31T01:05:05.250Z,1012.37
2017-03-31T01:05:54.206Z,1012.35
2017-03-31T01:06:54.311Z,1012.34
2017-03-31T01:07:54.293Z,1012.32
2017-03-31T01:08:55.333Z,1012.28
2017-03-31T01:09:50.433Z,1012.26
2017-03-31T01:10:44.455Z,1012.27
2017-03-31T01:11:44.535Z,1012.27
2017-03-31T01:12:39.548Z,1012.26
2017-03-31T01:13:39.550Z,1012.23
2017-03-31T01:14:33.548Z,1012.21
2017-03-31T01:15:33.621Z,1012.21
2017-03-31T01:16:28.734Z,1012.24
2017-03-31T01:17:23.726Z,1012.19
2017-03-31T01:18:24.035Z,1012.16
2017-03-31T01:19:18.734Z,1012.17
2017-03-31T01:20:14.166Z,1012.13
2017-03-31T01:21:07.861Z,1012.10
2017-03-31T01:22:02.839Z,1012.10
2017-03-31T01:22:56.919Z,1012.04
2017-03-31T01:23:56.959Z,1012.03
2017-03-31T01:24:52.550Z,1012.02
2017-03-31T01:25:47.145Z,1012.01
2017-03-31T01:26:47.066Z,1011.98
2017-03-31T01:27:42.086Z,1011.97
2017-03-31T01:28:36.154Z,1011.94
2017-03-31T01:29:36.089Z,1011.93
2017-03-31T01:30:36.142Z,1011.91
2017-03-31T01:31:31.252Z,1011.89
2017-03-31T01:32:26.330Z,1011.86
2017-03-31T01:33:26.404Z,1011.85
2017-03-31T01:34:21.346Z,1011.84
2017-03-31T01:35:21.621Z,1011.81
2017-03-31T01:36:21.335Z,1011.81
2017-03-31T01:37:21.454Z,1011.84
2017-03-31T01:38:15.415Z,1011.83
2017-03-31T01:39:10.545Z,1011.77
2017-03-31T01:40:11.436Z,1011.80
2017-03-31T01:41:05.512Z,1011.78
2017-03-31T01:42:05.561Z,1011.76
2017-03-31T01:43:00.562Z,1011.75
2017-03-31T01:44:06.626Z,1011.71
2017-03-31T01:45:01.630Z,1011.72
2017-03-31T01:45:55.658Z,1011.72
2017-03-31T01:46:55.762Z,1011.71
2017-03-31T01:47:55.677Z,1011.68
2017-03-31T01:48:50.833Z,1011.67
2017-03-31T01:49:50.797Z,1011.67
2017-03-31T01:50:50.909Z,1011.65
2017-03-31T01:51:45.003Z,1011.61
2017-03-31T01:52:44.925Z,1011.60
2017-03-31T01:53:39.929Z,1011.58
2017-03-31T01:54:34.995Z,1011.56
2017-03-31T01:55:36.028Z,1011.55
2017-03-31T01:56:37.077Z,1011.51
2017-03-31T01:57:32.080Z,1011.53
2017-03-31T01:58:26.158Z,1011.50
2017-03-31T01:59:26.206Z,1011.47
2017-03-31T02:00:26.215Z,1011.48
2017-03-31T02:01:21.230Z,1011.47
2017-03-31T02:02:15.279Z,1011.47
2017-03-31T02:03:15.300Z,1011.46
2017-03-31T02:04:10.349Z,1011.42
2017-03-31T02:05:05.462Z,1011.45
2017-03-31T02:06:11.422Z,1011.40
2017-03-31T02:07:05.462Z,1011.38
2017-03-31T02:08:05.568Z,1011.34
2017-03-31T02:09:00.473Z,1011.35
2017-03-31T02:10:00.523Z,1011.37
2017-03-31T02:10:54.548Z,1011.33
2017-03-31T02:11:54.645Z,1011.34
2017-03-31T02:12:49.683Z,1011.33
2017-03-31T02:13:44.722Z,1011.32
2017-03-31T02:14:44.728Z,1011.33
2017-03-31T02:15:38.779Z,1011.29
2017-03-31T02:16:39.806Z,1011.30
2017-03-31T02:17:39.787Z,1011.25
2017-03-31T02:18:39.868Z,1011.25
2017-03-31T02:19:33.968Z,1011.24
2017-03-31T02:20:33.926Z,1011.22
2017-03-31T02:21:28.983Z,1011.22
2017-03-31T02:22:24.000Z,1011.24
2017-03-31T02:23:24.118Z,1011.19
2017-03-31T02:24:19.036Z,1011.19
2017-03-31T02:25:13.173Z,1011.19
2017-03-31T02:26:13.155Z,1011.19
2017-03-31T02:27:13.127Z,1011.14
2017-03-31T02:28:08.162Z,1011.15
2017-03-31T02:29:03.239Z,1011.12
2017-03-31T02:30:04.261Z,1011.14
2017-03-31T02:31:04.438Z,1011.10
2017-03-31T02:32:04.308Z,1011.08
2017-03-31T02:33:04.334Z,1011.09
2017-03-31T02:34:05.380Z,1011.10
2017-03-31T02:35:06.433Z,1011.09
2017-03-31T02:36:00.436Z,1011.05
2017-03-31T02:37:00.492Z,1011.06
2017-03-31T02:37:55.518Z,1011.05
2017-03-31T02:38:50.513Z,1011.08
2017-03-31T02:39:50.583Z,1011.05
2017-03-31T02:40:45.723Z,1011.01
2017-03-31T02:41:33.655Z,1011.03
2017-03-31T02:42:30.057Z,1011.03
2017-03-31T02:43:16.738Z,1011.02
2017-03-31T02:44:10.777Z,1011.00
2017-03-31T02:44:59.780Z,1010.98
2017-03-31T02:45:47.864Z,1010.97
2017-03-31T02:46:35.837Z,1010.99
2017-03-31T02:47:24.113Z,1010.96
2017-03-31T02:48:17.984Z,1010.97
2017-03-31T02:49:07.040Z,1010.96
2017-03-31T02:49:55.046Z,1010.94
2017-03-31T02:50:43.145Z,1010.91
2017-03-31T02:51:32.157Z,1010.91
2017-03-31T02:52:20.118Z,1010.88
2017-03-31T02:53:09.353Z,1010.89
2017-03-31T02:54:09.273Z,1010.83
2017-03-31T02:55:03.273Z,1010.85
2017-03-31T02:56:03.324Z,1010.83
2017-03-31T02:56:58.362Z,1010.79
2017-03-31T02:57:53.417Z,1010.80
2017-03-31T02:58:53.464Z,1010.79
2017-03-31T02:59:48.786Z,1010.76
2017-03-31T03:00:43.610Z,1010.77
2017-03-31T03:01:44.533Z,1010.77
2017-03-31T03:02:44.570Z,1010.76
2017-03-31T03:03:39.618Z,1010.78
2017-03-31T03:04:39.609Z,1010.78
2017-03-31T03:05:33.651Z,1010.76
2017-03-31T03:06:33.698Z,1010.77
2017-03-31T03:07:22.745Z,1010.73
2017-03-31T03:08:10.815Z,1010.72
2017-03-31T03:08:59.858Z,1010.68
2017-03-31T03:09:47.822Z,1010.68
2017-03-31T03:10:35.861Z,1010.63
2017-03-31T03:11:24.932Z,1010.63
2017-03-31T03:12:13.008Z,1010.64
2017-03-31T03:13:01.037Z,1010.60
2017-03-31T03:13:50.114Z,1010.60
2017-03-31T03:14:38.140Z,1010.60
2017-03-31T03:15:26.171Z,1010.57
2017-03-31T03:16:14.259Z,1010.55
2017-03-31T03:17:03.241Z,1010.57
2017-03-31T03:17:51.319Z,1010.53
2017-03-31T03:18:40.319Z,1010.51
2017-03-31T03:19:28.363Z,1010.49
2017-03-31T03:20:16.415Z,1010.49
2017-03-31T03:21:05.789Z,1010.49
2017-03-31T03:21:53.533Z,1010.45
2017-03-31T03:22:41.506Z,1010.40
2017-03-31T03:23:29.574Z,1010.41
2017-03-31T03:24:18.619Z,1010.40
2017-03-31T03:25:07.127Z,1010.38
2017-03-31T03:26:06.696Z,1010.36
2017-03-31T03:26:55.747Z,1010.34
2017-03-31T03:27:43.729Z,1010.34
2017-03-31T03:28:31.773Z,1010.31
2017-03-31T03:29:19.841Z,1010.32
2017-03-31T03:30:07.901Z,1010.31
2017-03-31T03:30:55.917Z,1010.32
2017-03-31T03:31:43.953Z,1010.32
2017-03-31T03:32:33.084Z,1010.30
2017-03-31T03:33:21.054Z,1010.28
2017-03-31T03:34:09.111Z,1010.26
2017-03-31T03:34:58.123Z,1010.27
2017-03-31T03:35:46.145Z,1010.23
2017-03-31T03:36:34.244Z,1010.25
2017-03-31T03:37:23.208Z,1010.24
2017-03-31T03:38:11.294Z,1010.21
2017-03-31T03:38:59.342Z,1010.25
2017-03-31T03:39:47.447Z,1010.18
2017-03-31T03:40:36.464Z,1010.17
2017-03-31T03:41:24.579Z,1010.18
2017-03-31T03:42:13.500Z,1010.15
2017-03-31T03:43:01.507Z,1010.13
2017-03-31T03:43:49.580Z,1010.11
2017-03-31T03:44:49.631Z,1010.08
2017-03-31T03:45:44.657Z,1010.06
2017-03-31T03:46:45.725Z,1010.06
2017-03-31T03:47:40.685Z,1010.05
2017-03-31T03:48:41.775Z,1010.00
2017-03-31T03:49:36.144Z,1010.00
2017-03-31T03:50:35.857Z,1009.99
2017-03-31T03:51:30.823Z,1009.97
2017-03-31T03:52:18.934Z,1009.98
2017-03-31T03:53:06.974Z,1009.96
2017-03-31T03:53:55.018Z,1009.95
2017-03-31T03:54:49.040Z,1009.93
2017-03-31T03:55:38.053Z,1009.92
2017-03-31T03:56:26.622Z,1009.89
2017-03-31T03:57:14.172Z,1009.91
2017-03-31T03:58:02.192Z,1009.89
2017-03-31T03:58:51.266Z,1009.86
2017-03-31T03:59:39.565Z,1009.88
2017-03-31T04:00:33.371Z,1009.88
2017-03-31T04:01:33.346Z,1009.87
2017-03-31T04:02:33.417Z,1009.83
2017-03-31T04:03:28.443Z,1009.83
2017-03-31T04:04:22.436Z,1009.80
2017-03-31T04:05:22.568Z,1009.82
2017-03-31T04:06:17.620Z,1009.79
2017-03-31T04:07:05.641Z,1009.75
2017-03-31T04:08:05.611Z,1009.76
2017-03-31T04:09:11.601Z,1009.78
2017-03-31T04:10:07.030Z,1009.75
2017-03-31T04:10:54.626Z,1009.76
2017-03-31T04:11:49.741Z,1009.70
2017-03-31T04:12:49.697Z,1009.73
2017-03-31T04:13:49.772Z,1009.68
2017-03-31T04:14:44.033Z,1009.64
2017-03-31T04:15:44.118Z,1009.65
2017-03-31T04:16:38.916Z,1009.59
2017-03-31T04:17:33.234Z,1009.63
2017-03-31T04:18:27.071Z,1009.58
2017-03-31T04:19:27.943Z,1009.56
2017-03-31T04:20:28.985Z,1009.59
2017-03-31T04:21:23.043Z,1009.56
2017-03-31T04:22:23.086Z,1009.54
2017-03-31T04:23:18.179Z,1009.55
2017-03-31T04:24:18.150Z,1009.57
2017-03-31T04:25:18.176Z,1009.52
2017-03-31T04:26:18.233Z,1009.52
2017-03-31T04:27:12.246Z,1009.50
2017-03-31T04:28:12.462Z,1009.47
2017-03-31T04:29:07.411Z,1009.47
2017-03-31T04:30:01.368Z,1009.44
2017-03-31T04:31:01.426Z,1009.47
2017-03-31T04:31:50.438Z,1009.43
2017-03-31T04:32:50.518Z,1009.45
2017-03-31T04:33:44.455Z,1009.42
2017-03-31T04:34:45.004Z,1009.42
2017-03-31T04:35:39.559Z,1009.45
2017-03-31T04:36:34.605Z,1009.42
2017-03-31T04:37:34.641Z,1009.39
2017-03-31T04:38:23.663Z,1009.42
2017-03-31T04:39:11.754Z,1009.39
2017-03-31T04:40:12.810Z,1009.38
2017-03-31T04:41:12.764Z,1009.40
2017-03-31T04:42:12.804Z,1009.38
2017-03-31T04:43:06.860Z,1009.36
2017-03-31T04:44:07.919Z,1009.34
2017-03-31T04:45:01.935Z,1009.33
2017-03-31T04:45:56.956Z,1009.28
2017-03-31T04:46:57.977Z,1009.30
2017-03-31T04:47:59.041Z,1009.29
2017-03-31T04:48:47.133Z,1009.27
2017-03-31T04:49:35.086Z,1009.30
2017-03-31T04:50:24.146Z,1009.28
2017-03-31T04:51:18.870Z,1009.29
2017-03-31T04:52:12.281Z,1009.31
2017-03-31T04:53:12.279Z,1009.29
2017-03-31T04:54:06.281Z,1009.25
2017-03-31T04:55:00.333Z,1009.24
2017-03-31T04:55:48.819Z,1009.25
2017-03-31T04:56:36.903Z,1009.25
2017-03-31T04:57:25.435Z,1009.24
2017-03-31T04:58:13.502Z,1009.23
2017-03-31T04:59:01.546Z,1009.23
2017-03-31T04:59:51.110Z,1009.17
2017-03-31T05:00:38.611Z,1009.23
2017-03-31T05:01:26.649Z,1009.25
2017-03-31T05:02:14.702Z,1009.19
2017-03-31T05:03:03.739Z,1009.25
2017-03-31T05:03:52.007Z,1009.22
2017-03-31T05:04:40.809Z,1009.21
2017-03-31T05:05:28.895Z,1009.18
2017-03-31T05:06:17.887Z,1009.16
2017-03-31T05:07:05.946Z,1009.22
2017-03-31T05:07:53.976Z,1009.17
2017-03-31T05:08:49.467Z,1009.14
2017-03-31T05:09:44.052Z,1009.15
2017-03-31T05:10:39.098Z,1009.11
2017-03-31T05:11:28.126Z,1009.12
2017-03-31T05:12:23.458Z,1009.10
2017-03-31T05:13:12.445Z,1009.15
2017-03-31T05:14:07.299Z,1009.11
2017-03-31T05:14:55.265Z,1009.11
2017-03-31T05:15:43.352Z,1009.09
2017-03-31T05:16:32.465Z,1009.11
2017-03-31T05:17:20.471Z,1009.09
2017-03-31T05:18:09.687Z,1009.10
2017-03-31T05:18:57.525Z,1009.07
2017-03-31T05:19:45.533Z,1009.11
2017-03-31T05:20:34.604Z,1009.13
2017-03-31T05:21:23.067Z,1009.11
2017-03-31T05:22:10.671Z,1009.06
2017-03-31T05:22:58.696Z,1009.07
2017-03-31T05:23:47.747Z,1009.05
2017-03-31T05:24:35.807Z,1009.07
2017-03-31T05:25:25.634Z,1009.06
2017-03-31T05:26:12.906Z,1009.05
2017-03-31T05:27:00.999Z,1009.03
2017-03-31T05:27:50.031Z,1009.05
2017-03-31T05:28:38.052Z,1009.07
2017-03-31T05:29:26.490Z,1009.06
2017-03-31T05:30:15.269Z,1009.03
2017-03-31T05:31:03.155Z,1009.05
2017-03-31T05:31:52.160Z,1009.03
2017-03-31T05:32:46.205Z,1009.03
2017-03-31T05:33:35.300Z,1009.04
2017-03-31T05:34:23.290Z,1009.05
2017-03-31T05:35:23.368Z,1009.10
2017-03-31T05:36:17.678Z,1009.06
2017-03-31T05:37:17.385Z,1009.08
2017-03-31T05:38:12.438Z,1009.06
2017-03-31T05:39:07.496Z,1009.04
2017-03-31T05:40:07.538Z,1009.05
2017-03-31T05:41:02.786Z,1009.02
2017-03-31T05:41:58.189Z,1009.03
2017-03-31T05:42:51.654Z,1009.02
2017-03-31T05:43:52.674Z,1009.02
2017-03-31T05:44:47.731Z,1008.97
2017-03-31T05:45:47.742Z,1008.99
2017-03-31T05:46:48.293Z,1008.97
2017-03-31T05:47:47.837Z,1008.97
2017-03-31T05:48:42.866Z,1008.94
2017-03-31T05:49:43.042Z,1008.90
2017-03-31T05:50:37.975Z,1008.90
2017-03-31T05:51:33.383Z,1008.86
2017-03-31T05:52:33.144Z,1008.86
2017-03-31T05:53:28.448Z,1008.86
2017-03-31T05:54:22.036Z,1008.89
2017-03-31T05:55:16.099Z,1008.88
2017-03-31T05:56:11.311Z,1008.85
2017-03-31T05:57:05.179Z,1008.89
2017-03-31T05:58:05.247Z,1008.81
2017-03-31T05:58:59.653Z,1008.81
2017-03-31T05:59:59.704Z,1008.78
2017-03-31T06:00:54.446Z,1008.76
2017-03-31T06:01:49.644Z,1008.74
2017-03-31T06:02:49.952Z,1008.71
2017-03-31T06:03:43.942Z,1008.74
2017-03-31T06:04:32.647Z,1008.71
2017-03-31T06:05:20.483Z,1008.73
2017-03-31T06:06:08.509Z,1008.74
2017-03-31T06:07:08.546Z,1008.73
2017-03-31T06:07:57.610Z,1008.75
2017-03-31T06:08:52.884Z,1008.75
2017-03-31T06:09:40.642Z,1008.72
2017-03-31T06:10:34.702Z,1008.78
2017-03-31T06:11:34.805Z,1008.78
2017-03-31T06:12:23.790Z,1008.77
2017-03-31T06:13:23.910Z,1008.72
2017-03-31T06:14:23.888Z,1008.70
2017-03-31T06:15:23.971Z,1008.70
2017-03-31T06:16:18.959Z,1008.73
2017-03-31T06:17:14.022Z,1008.70
2017-03-31T06:18:08.531Z,1008.69
2017-03-31T06:19:08.051Z,1008.67
2017-03-31T06:20:03.683Z,1008.62
2017-03-31T06:20:57.139Z,1008.60
2017-03-31T06:21:52.247Z,1008.65
2017-03-31T06:22:47.303Z,1008.60
2017-03-31T06:23:41.205Z,1008.58
2017-03-31T06:24:35.719Z,1008.59
2017-03-31T06:25:29.358Z,1008.55
2017-03-31T06:26:24.368Z,1008.58
2017-03-31T06:27:18.405Z,1008.56
2017-03-31T06:28:13.449Z,1008.54
2017-03-31T06:29:02.538Z,1008.55
2017-03-31T06:29:56.549Z,1008.50
2017-03-31T06:30:56.578Z,1008.55
2017-03-31T06:31:50.636Z,1008.50
2017-03-31T06:32:51.657Z,1008.54
2017-03-31T06:33:45.729Z,1008.57
2017-03-31T06:34:39.725Z,1008.60
2017-03-31T06:35:35.126Z,1008.55
2017-03-31T06:36:28.934Z,1008.58
2017-03-31T06:37:23.879Z,1008.60
2017-03-31T06:38:23.960Z,1008.58
2017-03-31T06:39:18.952Z,1008.53
2017-03-31T06:40:13.032Z,1008.57
2017-03-31T06:41:13.013Z,1008.59
2017-03-31T06:42:07.519Z,1008.58
2017-03-31T06:43:07.508Z,1008.53
2017-03-31T06:44:02.163Z,1008.55
2017-03-31T06:44:51.231Z,1008.60
2017-03-31T06:45:51.207Z,1008.61
2017-03-31T06:46:46.302Z,1008.57
2017-03-31T06:47:40.690Z,1008.57
2017-03-31T06:48:40.727Z,1008.57
2017-03-31T06:49:35.419Z,1008.56
2017-03-31T06:50:30.462Z,1008.56
2017-03-31T06:51:24.529Z,1008.54
2017-03-31T06:52:18.850Z,1008.54
2017-03-31T06:53:13.655Z,1008.53
2017-03-31T06:54:07.591Z,1008.55
2017-03-31T06:55:08.785Z,1008.49
2017-03-31T06:56:03.698Z,1008.47
2017-03-31T06:57:03.713Z,1008.50
2017-03-31T06:58:03.761Z,1008.47
2017-03-31T06:58:57.861Z,1008.50
2017-03-31T06:59:57.874Z,1008.46
2017-03-31T07:00:52.890Z,1008.43
2017-03-31T07:01:47.947Z,1008.44
2017-03-31T07:02:42.588Z,1008.44
2017-03-31T07:03:42.698Z,1008.46
2017-03-31T07:04:37.162Z,1008.46
2017-03-31T07:05:32.099Z,1008.43
2017-03-31T07:06:32.151Z,1008.41
2017-03-31T07:07:27.242Z,1008.40
2017-03-31T07:08:22.307Z,1008.40
2017-03-31T07:09:16.231Z,1008.39
2017-03-31T07:10:16.370Z,1008.41
2017-03-31T07:11:11.750Z,1008.42
2017-03-31T07:12:05.419Z,1008.41
2017-03-31T07:13:00.427Z,1008.35
2017-03-31T07:13:54.522Z,1008.36
2017-03-31T07:14:49.526Z,1008.40
2017-03-31T07:15:38.611Z,1008.36
2017-03-31T07:16:33.628Z,1008.36
2017-03-31T07:17:33.688Z,1008.36
2017-03-31T07:18:28.723Z,1008.36
2017-03-31T07:19:28.743Z,1008.36
2017-03-31T07:20:22.832Z,1008.32
2017-03-31T07:21:12.129Z,1008.33
2017-03-31T07:22:06.963Z,1008.31
2017-03-31T07:23:06.934Z,1008.33
2017-03-31T07:24:01.974Z,1008.29
2017-03-31T07:24:56.062Z,1008.28
2017-03-31T07:25:56.146Z,1008.20
2017-03-31T07:26:50.106Z,1008.21
2017-03-31T07:27:50.098Z,1008.20
2017-03-31T07:28:45.560Z,1008.19
2017-03-31T07:29:40.209Z,1008.20
2017-03-31T07:30:40.281Z,1008.20
2017-03-31T07:31:34.326Z,1008.19
2017-03-31T07:32:35.651Z,1008.15
2017-03-31T07:33:29.470Z,1008.18
2017-03-31T07:34:23.482Z,1008.15
2017-03-31T07:35:23.532Z,1008.12
2017-03-31T07:36:19.216Z,1008.14
2017-03-31T07:37:13.630Z,1008.14
2017-03-31T07:38:13.911Z,1008.10
2017-03-31T07:39:07.725Z,1008.11
2017-03-31T07:40:08.754Z,1008.09
2017-03-31T07:40:57.829Z,1008.10
2017-03-31T07:41:52.856Z,1008.05
2017-03-31T07:42:53.886Z,1008.05
2017-03-31T07:43:54.023Z,1008.03
2017-03-31T07:44:49.458Z,1008.04
2017-03-31T07:45:49.499Z,1008.01
2017-03-31T07:46:43.034Z,1008.00
2017-03-31T07:47:43.129Z,1007.99
2017-03-31T07:48:38.169Z,1007.97
2017-03-31T07:49:32.295Z,1007.98
2017-03-31T07:50:33.261Z,1008.00
2017-03-31T07:51:33.301Z,1007.94
2017-03-31T07:52:27.332Z,1007.91
2017-03-31T07:53:27.382Z,1007.91
2017-03-31T07:54:22.931Z,1007.87
2017-03-31T07:55:10.540Z,1007.88
2017-03-31T07:56:11.555Z,1007.92
2017-03-31T07:57:11.572Z,1007.85
2017-03-31T07:58:05.656Z,1007.87
2017-03-31T07:58:54.789Z,1007.86
2017-03-31T07:59:43.761Z,1007.82
2017-03-31T08:00:37.929Z,1007.89
2017-03-31T08:01:37.893Z,1007.91
2017-03-31T08:02:31.940Z,1007.94
2017-03-31T08:03:26.965Z,1007.88
2017-03-31T08:04:26.942Z,1007.89
2017-03-31T08:05:15.013Z,1007.86
2017-03-31T08:06:09.092Z,1007.83
2017-03-31T08:07:03.235Z,1007.84
2017-03-31T08:07:57.177Z,1007.80
2017-03-31T08:08:52.474Z,1007.76
2017-03-31T08:09:41.241Z,1007.77
2017-03-31T08:10:35.362Z,1007.80
2017-03-31T08:11:25.081Z,1007.85
2017-03-31T08:12:18.404Z,1007.85
2017-03-31T08:13:12.521Z,1007.85
2017-03-31T08:14:06.542Z,1007.80
2017-03-31T08:14:55.968Z,1007.83
2017-03-31T08:15:49.668Z,1007.83
2017-03-31T08:16:39.311Z,1007.87
2017-03-31T08:17:27.949Z,1007.89
2017-03-31T08:18:21.838Z,1007.92
2017-03-31T08:19:21.845Z,1007.89
2017-03-31T08:20:09.941Z,1007.88
2017-03-31T08:21:04.897Z,1007.87
2017-03-31T08:21:59.463Z,1007.86
2017-03-31T08:22:48.082Z,1007.88
2017-03-31T08:23:42.133Z,1007.81
2017-03-31T08:24:42.340Z,1007.83
2017-03-31T08:25:37.284Z,1007.82
2017-03-31T08:26:37.345Z,1007.79
2017-03-31T08:27:27.143Z,1007.82
2017-03-31T08:28:26.950Z,1007.79
2017-03-31T08:29:20.580Z,1007.80
2017-03-31T08:30:15.595Z,1007.77
2017-03-31T08:31:04.646Z,1007.83
2017-03-31T08:32:00.341Z,1007.85
2017-03-31T08:32:54.932Z,1007.83
2017-03-31T08:33:54.859Z,1007.83
2017-03-31T08:34:54.952Z,1007.84
2017-03-31T08:35:43.997Z,1007.86
2017-03-31T08:36:38.053Z,1007.78
2017-03-31T08:37:38.121Z,1007.82
2017-03-31T08:38:33.243Z,1007.83
2017-03-31T08:39:28.471Z,1007.82
2017-03-31T08:40:22.715Z,1007.84
2017-03-31T08:41:11.367Z,1007.82
2017-03-31T08:42:05.335Z,1007.89
2017-03-31T08:42:53.480Z,1007.90
2017-03-31T08:43:41.549Z,1007.90
2017-03-31T08:44:35.586Z,1007.87
2017-03-31T08:45:31.133Z,1007.91
2017-03-31T08:46:19.770Z,1007.89
2017-03-31T08:47:13.847Z,1007.84
2017-03-31T08:48:03.359Z,1007.80
2017-03-31T08:48:52.460Z,1007.81
2017-03-31T08:49:47.065Z,1007.84
2017-03-31T08:50:47.154Z,1007.81
2017-03-31T08:51:36.238Z,1007.82
2017-03-31T08:52:30.339Z,1007.85
2017-03-31T08:53:30.364Z,1007.86
2017-03-31T08:54:24.736Z,1007.83
2017-03-31T08:55:12.506Z,1007.78
2017-03-31T08:56:06.524Z,1007.82
2017-03-31T08:57:00.646Z,1007.78
2017-03-31T08:57:54.688Z,1007.73
2017-03-31T08:58:48.731Z,1007.78
2017-03-31T08:59:49.065Z,1007.78
2017-03-31T09:00:42.814Z,1007.78
2017-03-31T09:01:42.875Z,1007.79
2017-03-31T09:02:30.989Z,1007.74
2017-03-31T09:03:31.062Z,1007.73
2017-03-31T09:04:26.030Z,1007.79
2017-03-31T09:05:20.235Z,1007.81
2017-03-31T09:06:15.183Z,1007.81
2017-03-31T09:07:09.626Z,1007.87
2017-03-31T09:07:57.321Z,1007.86
2017-03-31T09:08:46.350Z,1007.85
2017-03-31T09:09:46.402Z,1007.83
2017-03-31T09:10:34.837Z,1007.86
2017-03-31T09:11:22.511Z,1007.89
2017-03-31T09:12:11.961Z,1007.87
2017-03-31T09:13:00.650Z,1007.86
2017-03-31T09:13:49.963Z,1007.84
2017-03-31T09:14:44.293Z,1007.84
2017-03-31T09:15:38.251Z,1007.81
2017-03-31T09:16:32.913Z,1007.78
2017-03-31T09:17:21.978Z,1007.82
2017-03-31T09:18:16.039Z,1007.82
2017-03-31T09:19:16.090Z,1007.85
2017-03-31T09:20:11.154Z,1007.81
2017-03-31T09:21:00.394Z,1007.84
2017-03-31T09:21:48.319Z,1007.84
2017-03-31T09:22:42.401Z,1007.77
2017-03-31T09:23:42.422Z,1007.80
2017-03-31T09:24:31.556Z,1007.79
2017-03-31T09:25:25.664Z,1007.83
2017-03-31T09:26:13.755Z,1007.81
2017-03-31T09:27:09.230Z,1007.75
2017-03-31T09:28:02.836Z,1007.82
2017-03-31T09:28:57.960Z,1007.75
2017-03-31T09:29:52.023Z,1007.75
2017-03-31T09:30:47.147Z,1007.75
2017-03-31T09:31:48.495Z,1007.79
2017-03-31T09:32:42.693Z,1007.76
2017-03-31T09:33:37.333Z,1007.72
2017-03-31T09:34:32.389Z,1007.78
2017-03-31T09:35:21.510Z,1007.75
2017-03-31T09:36:16.532Z,1007.70
2017-03-31T09:37:16.676Z,1007.69
2017-03-31T09:38:11.174Z,1007.71
2017-03-31T09:38:59.794Z,1007.66
2017-03-31T09:39:54.823Z,1007.69
2017-03-31T09:40:43.987Z,1007.69
2017-03-31T09:41:44.898Z,1007.57
2017-03-31T09:42:40.730Z,1007.63
2017-03-31T09:43:34.095Z,1007.70
2017-03-31T09:44:23.553Z,1007.65
2017-03-31T09:45:17.168Z,1007.69
2017-03-31T09:46:12.747Z,1007.68
2017-03-31T09:47:12.761Z,1007.71
2017-03-31T09:48:06.645Z,1007.61
2017-03-31T09:49:01.439Z,1007.66
2017-03-31T09:50:01.513Z,1007.67
2017-03-31T09:50:56.635Z,1007.69
2017-03-31T09:51:56.625Z,1007.64
2017-03-31T09:52:51.246Z,1007.68
2017-03-31T09:53:51.245Z,1007.70
2017-03-31T09:54:38.820Z,1007.64
2017-03-31T09:55:26.869Z,1007.59
2017-03-31T09:56:26.952Z,1007.63
2017-03-31T09:57:20.960Z,1007.58
2017-03-31T09:58:15.512Z,1007.64
2017-03-31T09:59:10.084Z,1007.65
2017-03-31T09:59:59.120Z,1007.70
2017-03-31T10:00:53.197Z,1007.71
2017-03-31T10:01:54.213Z,1007.72
2017-03-31T10:02:49.715Z,1007.72
2017-03-31T10:03:44.859Z,1007.76
2017-03-31T10:04:33.445Z,1007.67
2017-03-31T10:05:22.466Z,1007.67
2017-03-31T10:06:17.000Z,1007.66
2017-03-31T10:07:11.691Z,1007.68
2017-03-31T10:08:06.688Z,1007.61
2017-03-31T10:08:55.745Z,1007.60
2017-03-31T10:09:50.670Z,1007.60
2017-03-31T10:10:43.916Z,1007.60
2017-03-31T10:11:37.948Z,1007.59
2017-03-31T10:12:33.053Z,1007.57
2017-03-31T10:13:22.491Z,1007.59
2017-03-31T10:14:16.354Z,1007.53
2017-03-31T10:15:04.534Z,1007.54
2017-03-31T10:15:52.688Z,1007.55
2017-03-31T10:16:46.452Z,1007.55
2017-03-31T10:17:46.496Z,1007.50
2017-03-31T10:18:35.512Z,1007.54
2017-03-31T10:19:35.625Z,1007.49
2017-03-31T10:20:30.955Z,1007.48
2017-03-31T10:21:30.758Z,1007.51
2017-03-31T10:22:25.241Z,1007.48
2017-03-31T10:23:25.313Z,1007.46
2017-03-31T10:24:25.355Z,1007.40
2017-03-31T10:25:19.511Z,1007.44
2017-03-31T10:26:13.461Z,1007.47
2017-03-31T10:27:08.083Z,1007.41
2017-03-31T10:28:03.136Z,1007.42
2017-03-31T10:28:57.827Z,1007.38
2017-03-31T10:29:51.734Z,1007.41
2017-03-31T10:30:46.339Z,1007.37
2017-03-31T10:31:40.408Z,1007.41
2017-03-31T10:32:28.878Z,1007.37
2017-03-31T10:33:28.459Z,1007.43
2017-03-31T10:34:24.040Z,1007.42
2017-03-31T10:35:23.868Z,1007.40
2017-03-31T10:36:12.700Z,1007.39
2017-03-31T10:37:12.787Z,1007.50
2017-03-31T10:38:07.833Z,1007.47
2017-03-31T10:38:57.281Z,1007.47
2017-03-31T10:39:50.928Z,1007.50
2017-03-31T10:40:46.102Z,1007.50
2017-03-31T10:41:40.082Z,1007.56
2017-03-31T10:42:29.358Z,1007.50
2017-03-31T10:43:23.674Z,1007.51
2017-03-31T10:44:23.725Z,1007.48
2017-03-31T10:45:23.828Z,1007.47
2017-03-31T10:46:12.449Z,1007.44
2017-03-31T10:47:06.478Z,1007.46
2017-03-31T10:48:01.557Z,1007.44
2017-03-31T10:48:56.090Z,1007.36
2017-03-31T10:49:50.718Z,1007.40
2017-03-31T10:50:44.792Z,1007.36
2017-03-31T10:51:38.859Z,1007.34
2017-03-31T10:52:27.535Z,1007.36
2017-03-31T10:53:27.302Z,1007.41
2017-03-31T10:54:16.293Z,1007.43
2017-03-31T10:55:05.161Z,1007.42
2017-03-31T10:56:00.153Z,1007.39